sensor_id;sensor_type;location;lat;lon;timestamp;pressure;altitude;pressure_sealevel;temperature;humidity
35507;BME280;36461;52.018;21.036;2023-06-14T00:00:00;100449.06;;;12.91;88.65
35507;BME280;36461;52.018;21.036;2023-06-14T00:02:32;100450.64;;;12.91;88.77
35507;BME280;36461;52.018;21.036;2023-06-14T00:05:01;100452.56;;;12.91;88.85
35507;BME280;36461;52.018;21.036;2023-06-14T00:07:38;100446.23;;;12.88;88.88
35507;BME280;36461;52.018;21.036;2023-06-14T00:10:11;100445.94;;;12.87;89.09
35507;BME280;36461;52.018;21.036;2023-06-14T00:12:40;100444.13;;;12.89;89.03
35507;BME280;36461;52.018;21.036;2023-06-14T00:15:09;100441.17;;;12.89;89.12
35507;BME280;36461;52.018;21.036;2023-06-14T00:17:37;100446.71;;;12.89;89.12
35507;BME280;36461;52.018;21.036;2023-06-14T00:20:07;100445.84;;;12.89;89.26
35507;BME280;36461;52.018;21.036;2023-06-14T00:22:37;100448.92;;;12.90;89.23
35507;BME280;36461;52.018;21.036;2023-06-14T00:25:07;100444.36;;;12.91;89.30
35507;BME280;36461;52.018;21.036;2023-06-14T00:27:55;100432.52;;;12.92;89.29
35507;BME280;36461;52.018;21.036;2023-06-14T00:30:24;100433.92;;;12.92;89.31
35507;BME280;36461;52.018;21.036;2023-06-14T00:32:53;100434.39;;;12.93;89.31
35507;BME280;36461;52.018;21.036;2023-06-14T00:35:21;100436.09;;;12.95;89.42
35507;BME280;36461;52.018;21.036;2023-06-14T00:37:49;100435.48;;;12.97;89.51
35507;BME280;36461;52.018;21.036;2023-06-14T00:40:18;100438.34;;;12.95;89.59
35507;BME280;36461;52.018;21.036;2023-06-14T00:42:46;100437.60;;;12.96;89.51
35507;BME280;36461;52.018;21.036;2023-06-14T00:45:15;100438.11;;;12.96;89.46
35507;BME280;36461;52.018;21.036;2023-06-14T00:47:45;100440.23;;;12.95;89.48
35507;BME280;36461;52.018;21.036;2023-06-14T00:50:14;100438.36;;;12.94;89.53
35507;BME280;36461;52.018;21.036;2023-06-14T00:52:42;100440.94;;;12.95;89.80
35507;BME280;36461;52.018;21.036;2023-06-14T00:55:11;100439.15;;;12.96;89.91
35507;BME280;36461;52.018;21.036;2023-06-14T00:57:40;100436.56;;;12.96;89.78
35507;BME280;36461;52.018;21.036;2023-06-14T01:00:09;100436.40;;;12.96;89.57
35507;BME280;36461;52.018;21.036;2023-06-14T01:02:38;100435.59;;;12.94;89.63
35507;BME280;36461;52.018;21.036;2023-06-14T01:05:10;100433.85;;;12.94;89.64
35507;BME280;36461;52.018;21.036;2023-06-14T01:08:00;100429.90;;;12.92;89.76
35507;BME280;36461;52.018;21.036;2023-06-14T01:10:58;100429.92;;;12.92;89.77
35507;BME280;36461;52.018;21.036;2023-06-14T01:13:35;100429.64;;;12.90;89.72
35507;BME280;36461;52.018;21.036;2023-06-14T01:16:05;100427.09;;;12.89;89.79
35507;BME280;36461;52.018;21.036;2023-06-14T01:18:34;100429.83;;;12.90;89.95
35507;BME280;36461;52.018;21.036;2023-06-14T01:21:03;100426.37;;;12.90;89.83
35507;BME280;36461;52.018;21.036;2023-06-14T01:23:34;100428.07;;;12.91;90.16
35507;BME280;36461;52.018;21.036;2023-06-14T01:26:03;100427.32;;;12.92;90.19
35507;BME280;36461;52.018;21.036;2023-06-14T01:28:34;100422.42;;;12.93;90.00
35507;BME280;36461;52.018;21.036;2023-06-14T01:31:03;100420.65;;;12.90;89.99
35507;BME280;36461;52.018;21.036;2023-06-14T01:33:35;100418.96;;;12.88;90.06
35507;BME280;36461;52.018;21.036;2023-06-14T01:36:05;100420.13;;;12.89;90.02
35507;BME280;36461;52.018;21.036;2023-06-14T01:38:36;100418.10;;;12.88;90.03
35507;BME280;36461;52.018;21.036;2023-06-14T01:41:05;100418.61;;;12.88;90.05
35507;BME280;36461;52.018;21.036;2023-06-14T01:43:34;100420.74;;;12.87;90.14
35507;BME280;36461;52.018;21.036;2023-06-14T01:46:06;100419.18;;;12.87;90.16
35507;BME280;36461;52.018;21.036;2023-06-14T01:48:35;100417.49;;;12.86;90.15
35507;BME280;36461;52.018;21.036;2023-06-14T01:51:04;100415.41;;;12.86;90.10
35507;BME280;36461;52.018;21.036;2023-06-14T01:53:32;100415.15;;;12.84;90.20
35507;BME280;36461;52.018;21.036;2023-06-14T01:56:01;100414.32;;;12.83;90.24
35507;BME280;36461;52.018;21.036;2023-06-14T01:58:31;100412.74;;;12.84;90.35
35507;BME280;36461;52.018;21.036;2023-06-14T02:00:59;100411.20;;;12.83;90.34
35507;BME280;36461;52.018;21.036;2023-06-14T02:03:29;100410.55;;;12.82;90.43
35507;BME280;36461;52.018;21.036;2023-06-14T02:05:58;100408.75;;;12.83;90.49
35507;BME280;36461;52.018;21.036;2023-06-14T02:08:27;100412.06;;;12.83;90.49
35507;BME280;36461;52.018;21.036;2023-06-14T02:10:55;100411.40;;;12.82;90.55
35507;BME280;36461;52.018;21.036;2023-06-14T02:13:23;100411.11;;;12.81;90.49
35507;BME280;36461;52.018;21.036;2023-06-14T02:15:52;100413.95;;;12.79;90.40
35507;BME280;36461;52.018;21.036;2023-06-14T02:18:23;100411.30;;;12.80;90.84
35507;BME280;36461;52.018;21.036;2023-06-14T02:20:51;100408.33;;;12.81;90.67
35507;BME280;36461;52.018;21.036;2023-06-14T02:23:19;100408.67;;;12.81;90.86
35507;BME280;36461;52.018;21.036;2023-06-14T02:25:48;100408.77;;;12.83;90.80
35507;BME280;36461;52.018;21.036;2023-06-14T02:28:16;100408.48;;;12.86;90.75
35507;BME280;36461;52.018;21.036;2023-06-14T02:30:44;100406.89;;;12.86;90.93
35507;BME280;36461;52.018;21.036;2023-06-14T02:33:12;100407.80;;;12.85;90.70
35507;BME280;36461;52.018;21.036;2023-06-14T02:35:41;100403.88;;;12.84;90.78
35507;BME280;36461;52.018;21.036;2023-06-14T02:38:09;100403.88;;;12.84;90.89
35507;BME280;36461;52.018;21.036;2023-06-14T02:40:38;100405.73;;;12.85;90.83
35507;BME280;36461;52.018;21.036;2023-06-14T02:43:06;100408.21;;;12.84;90.59
35507;BME280;36461;52.018;21.036;2023-06-14T02:45:34;100406.52;;;12.79;90.61
35507;BME280;36461;52.018;21.036;2023-06-14T02:48:03;100409.76;;;12.76;90.63
35507;BME280;36461;52.018;21.036;2023-06-14T02:50:31;100403.59;;;12.73;90.64
35507;BME280;36461;52.018;21.036;2023-06-14T02:53:00;100403.23;;;12.70;90.66
35507;BME280;36461;52.018;21.036;2023-06-14T02:55:28;100405.09;;;12.71;90.91
35507;BME280;36461;52.018;21.036;2023-06-14T02:57:56;100397.52;;;12.69;90.81
35507;BME280;36461;52.018;21.036;2023-06-14T03:00:26;100396.96;;;12.70;90.92
35507;BME280;36461;52.018;21.036;2023-06-14T03:02:54;100391.35;;;12.71;91.06
35507;BME280;36461;52.018;21.036;2023-06-14T03:05:23;100392.17;;;12.72;90.84
35507;BME280;36461;52.018;21.036;2023-06-14T03:07:52;100393.21;;;12.73;90.92
35507;BME280;36461;52.018;21.036;2023-06-14T03:10:22;100392.80;;;12.74;91.08
35507;BME280;36461;52.018;21.036;2023-06-14T03:12:50;100392.08;;;12.75;90.98
35507;BME280;36461;52.018;21.036;2023-06-14T03:15:21;100391.13;;;12.77;90.98
35507;BME280;36461;52.018;21.036;2023-06-14T03:17:52;100389.21;;;12.77;90.93
35507;BME280;36461;52.018;21.036;2023-06-14T03:20:21;100391.23;;;12.79;90.98
35507;BME280;36461;52.018;21.036;2023-06-14T03:22:50;100394.58;;;12.78;90.80
35507;BME280;36461;52.018;21.036;2023-06-14T03:25:20;100395.08;;;12.73;90.70
35507;BME280;36461;52.018;21.036;2023-06-14T03:27:50;100397.31;;;12.70;90.58
35507;BME280;36461;52.018;21.036;2023-06-14T03:30:18;100393.27;;;12.67;90.49
35507;BME280;36461;52.018;21.036;2023-06-14T03:32:47;100394.95;;;12.64;90.41
35507;BME280;36461;52.018;21.036;2023-06-14T03:35:16;100396.38;;;12.63;90.57
35507;BME280;36461;52.018;21.036;2023-06-14T03:37:47;100396.17;;;12.64;90.65
35507;BME280;36461;52.018;21.036;2023-06-14T03:40:18;100396.19;;;12.64;90.62
35507;BME280;36461;52.018;21.036;2023-06-14T03:42:49;100401.23;;;12.64;90.77
35507;BME280;36461;52.018;21.036;2023-06-14T03:45:17;100398.93;;;12.64;90.67
35507;BME280;36461;52.018;21.036;2023-06-14T03:47:45;100396.90;;;12.67;90.91
35507;BME280;36461;52.018;21.036;2023-06-14T03:50:13;100400.52;;;12.77;91.23
35507;BME280;36461;52.018;21.036;2023-06-14T03:52:44;100401.52;;;12.90;91.24
35507;BME280;36461;52.018;21.036;2023-06-14T03:55:12;100401.07;;;13.05;91.27
35507;BME280;36461;52.018;21.036;2023-06-14T03:57:45;100400.18;;;13.22;91.02
35507;BME280;36461;52.018;21.036;2023-06-14T04:00:15;100400.59;;;13.33;90.73
35507;BME280;36461;52.018;21.036;2023-06-14T04:02:44;100402.52;;;13.38;90.37
35507;BME280;36461;52.018;21.036;2023-06-14T04:05:13;100402.84;;;13.42;90.14
35507;BME280;36461;52.018;21.036;2023-06-14T04:07:47;100406.66;;;13.50;90.33
35507;BME280;36461;52.018;21.036;2023-06-14T04:10:16;100403.83;;;13.63;90.36
35507;BME280;36461;52.018;21.036;2023-06-14T04:12:45;100403.17;;;13.74;90.03
35507;BME280;36461;52.018;21.036;2023-06-14T04:15:14;100406.58;;;13.83;89.83
35507;BME280;36461;52.018;21.036;2023-06-14T04:17:50;100399.59;;;13.95;89.72
35507;BME280;36461;52.018;21.036;2023-06-14T04:20:21;100396.27;;;14.07;89.49
35507;BME280;36461;52.018;21.036;2023-06-14T04:22:50;100403.98;;;14.17;89.10
35507;BME280;36461;52.018;21.036;2023-06-14T04:25:19;100401.67;;;14.25;89.00
35507;BME280;36461;52.018;21.036;2023-06-14T04:27:51;100395.96;;;14.36;88.82
35507;BME280;36461;52.018;21.036;2023-06-14T04:30:21;100396.63;;;14.47;88.73
35507;BME280;36461;52.018;21.036;2023-06-14T04:32:53;100393.11;;;14.55;88.28
35507;BME280;36461;52.018;21.036;2023-06-14T04:35:24;100396.69;;;14.60;88.13
35507;BME280;36461;52.018;21.036;2023-06-14T04:37:54;100399.20;;;14.70;88.11
35507;BME280;36461;52.018;21.036;2023-06-14T04:40:24;100400.52;;;14.76;87.64
35507;BME280;36461;52.018;21.036;2023-06-14T04:42:53;100399.90;;;14.81;87.54
35507;BME280;36461;52.018;21.036;2023-06-14T04:45:23;100400.77;;;14.85;87.25
35507;BME280;36461;52.018;21.036;2023-06-14T04:47:51;100403.29;;;14.83;86.99
35507;BME280;36461;52.018;21.036;2023-06-14T04:50:27;100402.57;;;14.83;86.70
35507;BME280;36461;52.018;21.036;2023-06-14T04:52:58;100402.97;;;14.82;86.41
35507;BME280;36461;52.018;21.036;2023-06-14T04:55:28;100405.48;;;14.78;86.40
35507;BME280;36461;52.018;21.036;2023-06-14T04:57:57;100402.20;;;14.80;86.72
35507;BME280;36461;52.018;21.036;2023-06-14T05:00:27;100404.58;;;14.85;86.61
35507;BME280;36461;52.018;21.036;2023-06-14T05:02:55;100399.02;;;14.88;86.53
35507;BME280;36461;52.018;21.036;2023-06-14T05:05:29;100399.20;;;14.88;86.46
35507;BME280;36461;52.018;21.036;2023-06-14T05:07:57;100397.71;;;14.87;86.33
35507;BME280;36461;52.018;21.036;2023-06-14T05:10:25;100398.05;;;14.87;86.34
35507;BME280;36461;52.018;21.036;2023-06-14T05:12:54;100399.79;;;14.90;86.33
35507;BME280;36461;52.018;21.036;2023-06-14T05:15:22;100408.29;;;14.95;86.37
35507;BME280;36461;52.018;21.036;2023-06-14T05:17:53;100411.38;;;14.92;86.00
35507;BME280;36461;52.018;21.036;2023-06-14T05:20:24;100412.27;;;14.91;86.06
35507;BME280;36461;52.018;21.036;2023-06-14T05:22:53;100409.94;;;14.96;86.26
35507;BME280;36461;52.018;21.036;2023-06-14T05:25:22;100408.10;;;15.05;86.20
35507;BME280;36461;52.018;21.036;2023-06-14T05:27:50;100404.51;;;15.18;86.46
35507;BME280;36461;52.018;21.036;2023-06-14T05:30:18;100403.61;;;15.32;86.56
35507;BME280;36461;52.018;21.036;2023-06-14T05:32:46;100406.27;;;15.45;86.34
35507;BME280;36461;52.018;21.036;2023-06-14T05:35:15;100408.70;;;15.58;86.19
35507;BME280;36461;52.018;21.036;2023-06-14T05:37:44;100406.23;;;15.75;85.93
35507;BME280;36461;52.018;21.036;2023-06-14T05:40:12;100404.27;;;15.99;85.81
35507;BME280;36461;52.018;21.036;2023-06-14T05:42:41;100397.54;;;16.27;85.52
35507;BME280;36461;52.018;21.036;2023-06-14T05:45:09;100402.18;;;16.59;85.04
35507;BME280;36461;52.018;21.036;2023-06-14T05:47:38;100403.63;;;16.86;84.36
35507;BME280;36461;52.018;21.036;2023-06-14T05:50:06;100409.31;;;16.90;82.96
35507;BME280;36461;52.018;21.036;2023-06-14T05:52:35;100403.45;;;16.92;82.58
35507;BME280;36461;52.018;21.036;2023-06-14T05:55:05;100400.08;;;17.02;82.21
35507;BME280;36461;52.018;21.036;2023-06-14T05:57:34;100399.83;;;17.27;81.74
35507;BME280;36461;52.018;21.036;2023-06-14T06:00:03;100401.20;;;17.60;81.95
35507;BME280;36461;52.018;21.036;2023-06-14T06:02:43;100403.39;;;17.90;81.61
35507;BME280;36461;52.018;21.036;2023-06-14T06:05:13;100398.58;;;18.05;80.59
35507;BME280;36461;52.018;21.036;2023-06-14T06:07:42;100401.62;;;18.16;79.80
35507;BME280;36461;52.018;21.036;2023-06-14T06:10:12;100395.77;;;18.19;79.05
35507;BME280;36461;52.018;21.036;2023-06-14T06:12:41;100403.63;;;18.19;78.01
35507;BME280;36461;52.018;21.036;2023-06-14T06:15:10;100404.63;;;18.12;77.75
35507;BME280;36461;52.018;21.036;2023-06-14T06:17:42;100400.04;;;18.21;77.74
35507;BME280;36461;52.018;21.036;2023-06-14T06:20:23;100407.80;;;18.31;77.63
35507;BME280;36461;52.018;21.036;2023-06-14T06:22:58;100408.83;;;18.34;76.92
35507;BME280;36461;52.018;21.036;2023-06-14T06:25:27;100409.09;;;18.24;75.91
35507;BME280;36461;52.018;21.036;2023-06-14T06:27:55;100410.80;;;18.17;76.09
35507;BME280;36461;52.018;21.036;2023-06-14T06:30:25;100409.09;;;18.16;76.12
35507;BME280;36461;52.018;21.036;2023-06-14T06:32:54;100408.82;;;18.15;76.59
35507;BME280;36461;52.018;21.036;2023-06-14T06:35:24;100410.36;;;18.07;76.27
35507;BME280;36461;52.018;21.036;2023-06-14T06:37:52;100409.17;;;17.95;76.14
35507;BME280;36461;52.018;21.036;2023-06-14T06:40:21;100412.58;;;17.94;75.92
35507;BME280;36461;52.018;21.036;2023-06-14T06:42:49;100413.31;;;17.91;75.87
35507;BME280;36461;52.018;21.036;2023-06-14T06:45:19;100417.62;;;17.83;75.63
35507;BME280;36461;52.018;21.036;2023-06-14T06:47:49;100421.85;;;17.77;75.28
35507;BME280;36461;52.018;21.036;2023-06-14T06:50:18;100423.28;;;17.71;75.68
35507;BME280;36461;52.018;21.036;2023-06-14T06:52:48;100428.64;;;17.66;75.71
35507;BME280;36461;52.018;21.036;2023-06-14T06:55:16;100433.16;;;17.72;76.28
35507;BME280;36461;52.018;21.036;2023-06-14T06:57:45;100433.66;;;17.87;76.44
35507;BME280;36461;52.018;21.036;2023-06-14T07:00:14;100433.48;;;18.07;76.69
35507;BME280;36461;52.018;21.036;2023-06-14T07:02:43;100433.47;;;18.27;76.16
35507;BME280;36461;52.018;21.036;2023-06-14T07:05:12;100434.99;;;18.44;75.31
35507;BME280;36461;52.018;21.036;2023-06-14T07:07:41;100436.46;;;18.68;75.08
35507;BME280;36461;52.018;21.036;2023-06-14T07:10:10;100437.52;;;18.89;74.26
35507;BME280;36461;52.018;21.036;2023-06-14T07:12:38;100441.79;;;19.10;74.29
35507;BME280;36461;52.018;21.036;2023-06-14T07:15:08;100442.39;;;19.24;73.63
35507;BME280;36461;52.018;21.036;2023-06-14T07:17:36;100436.78;;;19.32;73.46
35507;BME280;36461;52.018;21.036;2023-06-14T07:20:06;100438.61;;;19.49;73.32
35507;BME280;36461;52.018;21.036;2023-06-14T07:22:35;100436.13;;;19.67;72.61
35507;BME280;36461;52.018;21.036;2023-06-14T07:25:05;100432.30;;;19.85;71.99
35507;BME280;36461;52.018;21.036;2023-06-14T07:27:33;100434.64;;;19.97;71.98
35507;BME280;36461;52.018;21.036;2023-06-14T07:30:01;100440.16;;;19.98;71.49
35507;BME280;36461;52.018;21.036;2023-06-14T07:32:29;100439.26;;;19.86;70.42
35507;BME280;36461;52.018;21.036;2023-06-14T07:34:58;100442.50;;;19.85;69.88
35507;BME280;36461;52.018;21.036;2023-06-14T07:37:26;100437.86;;;19.93;70.01
35507;BME280;36461;52.018;21.036;2023-06-14T07:39:55;100444.03;;;20.08;69.98
35507;BME280;36461;52.018;21.036;2023-06-14T07:42:23;100440.61;;;20.16;69.32
35507;BME280;36461;52.018;21.036;2023-06-14T07:44:51;100441.50;;;20.36;69.31
35507;BME280;36461;52.018;21.036;2023-06-14T07:47:20;100438.73;;;20.48;67.98
35507;BME280;36461;52.018;21.036;2023-06-14T07:49:49;100442.30;;;20.52;67.30
35507;BME280;36461;52.018;21.036;2023-06-14T07:52:17;100441.07;;;20.69;67.18
35507;BME280;36461;52.018;21.036;2023-06-14T07:54:46;100443.34;;;20.84;66.20
35507;BME280;36461;52.018;21.036;2023-06-14T07:57:14;100441.52;;;20.98;66.39
35507;BME280;36461;52.018;21.036;2023-06-14T07:59:42;100440.82;;;21.20;66.25
35507;BME280;36461;52.018;21.036;2023-06-14T08:02:10;100447.09;;;21.37;65.77
35507;BME280;36461;52.018;21.036;2023-06-14T08:04:39;100442.35;;;21.46;64.73
35507;BME280;36461;52.018;21.036;2023-06-14T08:07:07;100441.68;;;21.59;64.24
35507;BME280;36461;52.018;21.036;2023-06-14T08:09:35;100440.77;;;21.71;63.77
35507;BME280;36461;52.018;21.036;2023-06-14T08:12:07;100445.05;;;21.79;63.87
35507;BME280;36461;52.018;21.036;2023-06-14T08:14:39;100437.75;;;22.05;63.33
35507;BME280;36461;52.018;21.036;2023-06-14T08:17:07;100437.08;;;22.18;62.55
35507;BME280;36461;52.018;21.036;2023-06-14T08:19:36;100432.61;;;22.19;61.25
35507;BME280;36461;52.018;21.036;2023-06-14T08:22:05;100437.75;;;22.29;61.87
35507;BME280;36461;52.018;21.036;2023-06-14T08:24:33;100436.30;;;22.30;61.13
35507;BME280;36461;52.018;21.036;2023-06-14T08:27:01;100438.19;;;22.26;60.77
35507;BME280;36461;52.018;21.036;2023-06-14T08:29:29;100439.79;;;22.22;60.63
35507;BME280;36461;52.018;21.036;2023-06-14T08:32:00;100435.19;;;22.13;61.04
35507;BME280;36461;52.018;21.036;2023-06-14T08:34:28;100434.70;;;22.08;60.94
35507;BME280;36461;52.018;21.036;2023-06-14T08:36:57;100441.48;;;21.98;61.17
35507;BME280;36461;52.018;21.036;2023-06-14T08:39:25;100436.85;;;21.96;60.93
35507;BME280;36461;52.018;21.036;2023-06-14T08:41:54;100432.42;;;21.86;60.56
35507;BME280;36461;52.018;21.036;2023-06-14T08:44:24;100431.75;;;21.69;60.62
35507;BME280;36461;52.018;21.036;2023-06-14T08:46:55;100432.31;;;21.60;60.84
35507;BME280;36461;52.018;21.036;2023-06-14T08:49:25;100433.97;;;21.45;59.95
35507;BME280;36461;52.018;21.036;2023-06-14T08:51:57;100434.90;;;21.19;60.06
35507;BME280;36461;52.018;21.036;2023-06-14T08:54:28;100430.99;;;21.10;60.51
35507;BME280;36461;52.018;21.036;2023-06-14T08:57:03;100430.23;;;21.06;60.39
35507;BME280;36461;52.018;21.036;2023-06-14T08:59:34;100427.20;;;21.04;60.69
35507;BME280;36461;52.018;21.036;2023-06-14T09:02:07;100422.79;;;21.09;60.81
35507;BME280;36461;52.018;21.036;2023-06-14T09:04:40;100419.58;;;21.31;60.53
35507;BME280;36461;52.018;21.036;2023-06-14T09:07:09;100420.91;;;21.57;60.80
35507;BME280;36461;52.018;21.036;2023-06-14T09:09:41;100421.63;;;21.77;59.16
35507;BME280;36461;52.018;21.036;2023-06-14T09:12:30;100426.61;;;21.79;58.09
35507;BME280;36461;52.018;21.036;2023-06-14T09:14:58;100424.49;;;21.76;57.39
35507;BME280;36461;52.018;21.036;2023-06-14T09:17:27;100428.54;;;21.72;56.98
35507;BME280;36461;52.018;21.036;2023-06-14T09:19:56;100430.94;;;21.66;56.36
35507;BME280;36461;52.018;21.036;2023-06-14T09:22:24;100434.86;;;21.45;55.43
35507;BME280;36461;52.018;21.036;2023-06-14T09:24:53;100436.07;;;21.38;56.30
35507;BME280;36461;52.018;21.036;2023-06-14T09:27:21;100433.65;;;21.42;56.11
35507;BME280;36461;52.018;21.036;2023-06-14T09:29:49;100428.09;;;21.48;56.31
35507;BME280;36461;52.018;21.036;2023-06-14T09:32:18;100429.77;;;21.47;56.36
35507;BME280;36461;52.018;21.036;2023-06-14T09:34:46;100427.33;;;21.54;56.64
35507;BME280;36461;52.018;21.036;2023-06-14T09:37:31;100424.30;;;21.70;56.95
35507;BME280;36461;52.018;21.036;2023-06-14T09:40:00;100428.83;;;21.82;56.85
35507;BME280;36461;52.018;21.036;2023-06-14T09:42:28;100433.55;;;21.78;55.93
35507;BME280;36461;52.018;21.036;2023-06-14T09:44:57;100430.55;;;21.62;56.04
35507;BME280;36461;52.018;21.036;2023-06-14T09:47:25;100426.55;;;21.52;55.90
35507;BME280;36461;52.018;21.036;2023-06-14T09:49:54;100427.66;;;21.51;56.19
35507;BME280;36461;52.018;21.036;2023-06-14T09:52:23;100427.69;;;21.46;55.95
35507;BME280;36461;52.018;21.036;2023-06-14T09:54:54;100424.63;;;21.43;55.09
35507;BME280;36461;52.018;21.036;2023-06-14T09:57:23;100424.73;;;21.39;55.10
35507;BME280;36461;52.018;21.036;2023-06-14T09:59:57;100423.71;;;21.41;55.19
35507;BME280;36461;52.018;21.036;2023-06-14T10:02:40;100417.58;;;21.59;55.67
35507;BME280;36461;52.018;21.036;2023-06-14T10:05:17;100417.55;;;21.75;55.60
35507;BME280;36461;52.018;21.036;2023-06-14T10:08:04;100416.13;;;21.91;55.31
35507;BME280;36461;52.018;21.036;2023-06-14T10:10:39;100416.83;;;22.05;55.14
35507;BME280;36461;52.018;21.036;2023-06-14T10:13:08;100421.73;;;22.27;55.27
35507;BME280;36461;52.018;21.036;2023-06-14T10:15:51;100427.56;;;22.31;54.34
35507;BME280;36461;52.018;21.036;2023-06-14T10:23:47;100421.89;;;22.34;53.65
35507;BME280;36461;52.018;21.036;2023-06-14T10:26:21;100421.25;;;22.49;53.90
35507;BME280;36461;52.018;21.036;2023-06-14T10:29:16;100419.98;;;22.47;53.17
35507;BME280;36461;52.018;21.036;2023-06-14T10:31:49;100418.56;;;22.31;52.21
35507;BME280;36461;52.018;21.036;2023-06-14T10:34:26;100411.02;;;22.28;52.28
35507;BME280;36461;52.018;21.036;2023-06-14T10:37:13;100415.69;;;22.30;52.53
35507;BME280;36461;52.018;21.036;2023-06-14T10:39:42;100409.13;;;22.35;52.61
35507;BME280;36461;52.018;21.036;2023-06-14T10:42:14;100402.09;;;22.44;52.22
35507;BME280;36461;52.018;21.036;2023-06-14T10:44:49;100401.84;;;22.57;52.31
35507;BME280;36461;52.018;21.036;2023-06-14T10:49:53;100399.25;;;22.97;51.13
35507;BME280;36461;52.018;21.036;2023-06-14T10:52:24;100403.04;;;23.23;50.36
35507;BME280;36461;52.018;21.036;2023-06-14T10:57:54;100403.48;;;23.25;49.03
35507;BME280;36461;52.018;21.036;2023-06-14T11:00:28;100404.27;;;23.28;49.25
35507;BME280;36461;52.018;21.036;2023-06-14T11:03:51;100402.11;;;23.18;49.26
35507;BME280;36461;52.018;21.036;2023-06-14T11:06:22;100407.74;;;23.01;48.91
35507;BME280;36461;52.018;21.036;2023-06-14T11:11:36;100407.23;;;23.01;49.48
35507;BME280;36461;52.018;21.036;2023-06-14T11:14:06;100402.04;;;23.02;49.29
35507;BME280;36461;52.018;21.036;2023-06-14T11:16:34;100401.75;;;22.97;49.19
35507;BME280;36461;52.018;21.036;2023-06-14T11:19:03;100401.13;;;23.00;49.31
35507;BME280;36461;52.018;21.036;2023-06-14T11:21:32;100402.63;;;23.09;49.10
35507;BME280;36461;52.018;21.036;2023-06-14T11:24:01;100398.34;;;22.93;48.97
35507;BME280;36461;52.018;21.036;2023-06-14T11:26:31;100402.34;;;22.83;49.25
35507;BME280;36461;52.018;21.036;2023-06-14T11:29:01;100404.52;;;22.70;49.35
35507;BME280;36461;52.018;21.036;2023-06-14T11:31:30;100406.13;;;22.65;49.63
35507;BME280;36461;52.018;21.036;2023-06-14T11:33:59;100397.17;;;22.60;49.08
35507;BME280;36461;52.018;21.036;2023-06-14T11:36:31;100400.02;;;22.64;49.31
35507;BME280;36461;52.018;21.036;2023-06-14T11:39:03;100403.35;;;22.73;49.42
35507;BME280;36461;52.018;21.036;2023-06-14T11:41:42;100404.20;;;22.82;49.15
35507;BME280;36461;52.018;21.036;2023-06-14T11:44:12;100405.91;;;22.85;49.02
35507;BME280;36461;52.018;21.036;2023-06-14T11:46:40;100405.65;;;22.86;48.95
35507;BME280;36461;52.018;21.036;2023-06-14T11:49:08;100404.20;;;22.92;48.96
35507;BME280;36461;52.018;21.036;2023-06-14T11:51:37;100404.29;;;23.00;48.37
35507;BME280;36461;52.018;21.036;2023-06-14T11:54:07;100399.94;;;23.20;48.56
35507;BME280;36461;52.018;21.036;2023-06-14T11:56:37;100401.71;;;23.37;47.15
35507;BME280;36461;52.018;21.036;2023-06-14T11:59:05;100398.52;;;23.43;46.63
35507;BME280;36461;52.018;21.036;2023-06-14T12:01:36;100400.11;;;23.50;46.43
35507;BME280;36461;52.018;21.036;2023-06-14T12:04:07;100401.59;;;23.53;45.64
35507;BME280;36461;52.018;21.036;2023-06-14T12:06:35;100399.98;;;23.43;45.23
35507;BME280;36461;52.018;21.036;2023-06-14T12:09:08;100398.79;;;23.45;45.77
35507;BME280;36461;52.018;21.036;2023-06-14T12:11:46;100398.92;;;23.43;45.79
35507;BME280;36461;52.018;21.036;2023-06-14T12:14:14;100397.21;;;23.30;45.58
35507;BME280;36461;52.018;21.036;2023-06-14T12:16:43;100397.15;;;23.12;46.11
35507;BME280;36461;52.018;21.036;2023-06-14T12:19:16;100396.55;;;23.04;46.42
35507;BME280;36461;52.018;21.036;2023-06-14T12:21:48;100389.20;;;22.90;46.38
35507;BME280;36461;52.018;21.036;2023-06-14T12:24:20;100384.18;;;22.68;46.60
35507;BME280;36461;52.018;21.036;2023-06-14T12:26:48;100388.51;;;22.52;46.39
35507;BME280;36461;52.018;21.036;2023-06-14T12:29:19;100391.56;;;22.34;46.84
35507;BME280;36461;52.018;21.036;2023-06-14T12:31:47;100382.66;;;22.35;46.53
35507;BME280;36461;52.018;21.036;2023-06-14T12:34:16;100380.40;;;22.41;46.71
35507;BME280;36461;52.018;21.036;2023-06-14T12:36:44;100380.77;;;22.52;46.87
35507;BME280;36461;52.018;21.036;2023-06-14T12:39:14;100376.44;;;22.49;46.39
35507;BME280;36461;52.018;21.036;2023-06-14T12:41:42;100372.17;;;22.43;46.75
35507;BME280;36461;52.018;21.036;2023-06-14T12:44:12;100367.55;;;22.48;47.08
35507;BME280;36461;52.018;21.036;2023-06-14T12:46:41;100369.17;;;22.43;46.65
35507;BME280;36461;52.018;21.036;2023-06-14T12:49:11;100363.56;;;22.55;46.79
35507;BME280;36461;52.018;21.036;2023-06-14T12:51:40;100374.42;;;22.59;45.92
35507;BME280;36461;52.018;21.036;2023-06-14T12:54:09;100371.84;;;22.38;45.75
35507;BME280;36461;52.018;21.036;2023-06-14T12:56:37;100365.19;;;22.24;45.80
35507;BME280;36461;52.018;21.036;2023-06-14T12:59:06;100363.16;;;22.21;45.76
35507;BME280;36461;52.018;21.036;2023-06-14T13:01:38;100361.24;;;22.25;46.17
35507;BME280;36461;52.018;21.036;2023-06-14T13:04:07;100362.13;;;22.43;46.06
35507;BME280;36461;52.018;21.036;2023-06-14T13:06:36;100361.06;;;22.68;46.02
35507;BME280;36461;52.018;21.036;2023-06-14T13:09:05;100362.21;;;22.88;45.64